Time;durP1;ratioP1;P1;durP2;ratioP2;P2;SDS_P1;SDS_P2;PMS_P1;PMS_P2;Temp;Humidity;BMP_temperature;BMP_pressure;BME280_temperature;BME280_humidity;BME280_pressure;Samples;Min_cycle;Max_cycle;Signal;HPM_P1;HPM_P2
2022/01/06 00:02:01;;;;;;;4.70;2.53;;;;;;;3.04;87.66;99304.52;1682767;85;20972;-74
2022/01/06 00:04:28;;;;;;;4.05;1.35;;;;;;;3.04;87.67;99298.13;1683039;85;21043;-74
2022/01/06 00:06:54;;;;;;;8.00;3.10;;;;;;;3.03;87.63;99305.37;1670507;85;21079;-75
2022/01/06 00:09:21;;;;;;;9.18;3.08;;;;;;;3.03;87.69;99304.09;1682277;85;21014;-75
2022/01/06 00:11:47;;;;;;;9.25;3.10;;;;;;;3.03;87.73;99316.42;1675147;85;21413;-75
2022/01/06 00:14:25;;;;;;;6.45;2.33;;;;;;;3.05;87.75;99315.14;1676654;85;21090;-75
2022/01/06 00:24:50;;;;;;;6.75;2.55;;;;;;;3.04;87.75;99321.95;1666720;85;21051;-75
2022/01/06 00:27:16;;;;;;;;;;;;;;;3.03;87.72;99326.64;1674618;84;21439;-75
2022/01/06 00:29:42;;;;;;;9.20;2.72;;;;;;;3.04;87.76;99327.06;1657244;85;20200;-75
2022/01/06 00:32:10;;;;;;;8.13;2.45;;;;;;;3.03;87.70;99339.41;1681160;85;21492;-75
2022/01/06 00:34:36;;;;;;;8.15;2.42;;;;;;;3.03;87.77;99329.20;1672159;84;21059;-75
2022/01/06 00:37:03;;;;;;;6.22;2.62;;;;;;;3.02;87.75;99340.27;1665956;84;21630;-75
2022/01/06 00:39:29;;;;;;;10.75;3.60;;;;;;;3.00;87.73;99341.98;1665157;84;21078;-75
2022/01/06 00:41:58;;;;;;;10.80;3.58;;;;;;;3.00;87.75;99349.64;1664914;86;21030;-75
2022/01/06 00:44:25;;;;;;;8.60;3.25;;;;;;;2.98;87.82;99348.38;1665395;86;22197;-75
2022/01/06 00:46:52;;;;;;;12.70;3.47;;;;;;;2.98;87.78;99349.66;1672022;84;21122;-75
2022/01/06 00:49:22;;;;;;;7.78;2.42;;;;;;;3.00;87.76;99353.47;1673196;84;21051;-75
2022/01/06 00:51:48;;;;;;;5.42;2.30;;;;;;;2.98;87.73;99357.31;1665182;86;21570;-75
2022/01/06 00:54:15;;;;;;;8.23;2.55;;;;;;;2.97;87.74;99359.45;1667428;84;21082;-75
2022/01/06 00:56:41;;;;;;;12.90;3.87;;;;;;;2.98;87.77;99361.57;1683550;83;21040;-75
2022/01/06 00:59:07;;;;;;;10.53;3.20;;;;;;;2.98;87.77;99370.50;1693172;84;21103;-75
2022/01/06 01:01:33;;;;;;;5.53;2.70;;;;;;;2.99;87.78;99376.03;1690070;84;21006;-75
2022/01/06 01:03:59;;;;;;;9.85;3.05;;;;;;;2.97;87.78;99376.04;1674320;84;21476;-75
2022/01/06 01:06:25;;;;;;;10.90;4.03;;;;;;;2.98;87.78;99376.46;1692268;84;20932;-75
2022/01/06 01:08:51;;;;;;;3.50;1.87;;;;;;;2.99;87.80;99379.86;1687029;84;21693;-75
2022/01/06 01:11:17;;;;;;;3.62;2.05;;;;;;;2.98;87.81;99379.02;1692702;84;21067;-75
2022/01/06 01:13:56;;;;;;;2.98;1.57;;;;;;;2.98;87.82;99377.73;1693139;84;21114;-75
2022/01/06 01:16:30;;;;;;;7.67;3.30;;;;;;;2.99;87.81;99381.14;1692760;84;21085;-75
2022/01/06 01:18:56;;;;;;;6.17;2.55;;;;;;;2.98;87.81;99387.10;1685940;84;21129;-75
2022/01/06 01:21:28;;;;;;;7.28;2.40;;;;;;;2.99;87.80;99381.14;1665986;86;20998;-75
2022/01/06 01:24:00;;;;;;;5.60;2.37;;;;;;;2.97;87.77;99391.36;1666377;84;20952;-75
2022/01/06 01:26:27;;;;;;;6.87;2.75;;;;;;;2.98;87.85;99393.48;1690290;83;20908;-74
2022/01/06 01:28:54;;;;;;;4.22;1.65;;;;;;;2.97;87.81;99404.13;1694127;84;20923;-74
2022/01/06 01:31:28;;;;;;;;;;;;;;;2.95;87.79;99402.44;1696787;84;21433;-74
2022/01/06 01:33:58;;;;;;;3.42;2.10;;;;;;;2.94;87.83;99413.50;1683096;83;20108;-74
2022/01/06 01:36:23;;;;;;;7.08;2.72;;;;;;;2.94;87.82;99418.61;1638584;85;20905;-74
2022/01/06 01:38:49;;;;;;;9.30;3.72;;;;;;;2.92;87.83;99423.72;1638897;86;21005;-74
2022/01/06 01:41:15;;;;;;;11.60;3.17;;;;;;;2.91;87.84;99428.41;1648737;86;20904;-74
2022/01/06 01:43:43;;;;;;;6.08;2.80;;;;;;;2.91;87.84;99428.41;1638120;86;20976;-74
2022/01/06 01:46:17;;;;;;;3.70;1.35;;;;;;;2.90;87.83;99439.91;1638830;86;20889;-74
2022/01/06 01:48:47;;;;;;;7.55;3.02;;;;;;;2.89;87.84;99439.48;1664811;85;20929;-74
2022/01/06 01:51:14;;;;;;;2.60;1.55;;;;;;;2.88;87.82;99441.61;1664771;86;20992;-74
2022/01/06 01:53:40;;;;;;;3.83;1.40;;;;;;;2.84;87.78;99444.60;1664472;85;20986;-74
2022/01/06 01:56:08;;;;;;;63.30;7.58;;;;;;;2.83;87.78;99450.98;1651685;86;20927;-74
2022/01/06 01:58:36;;;;;;;40.95;4.50;;;;;;;2.82;87.80;99453.97;1665077;85;20949;-74
2022/01/06 02:01:04;;;;;;;58.55;11.12;;;;;;;2.79;87.77;99461.64;1665082;85;20965;-74
2022/01/06 02:03:30;;;;;;;63.33;5.62;;;;;;;2.79;87.79;99466.74;1664807;85;20929;-74
2022/01/06 02:05:56;;;;;;;144.75;18.45;;;;;;;2.80;87.78;99471.42;1641199;85;21016;-75
2022/01/06 02:08:22;;;;;;;2.05;1.15;;;;;;;2.76;87.73;99474.41;1656029;86;20924;-75
2022/01/06 02:10:48;;;;;;;6.67;2.80;;;;;;;2.75;87.74;99479.52;1646365;85;21506;-75
2022/01/06 02:13:15;;;;;;;2.52;1.65;;;;;;;2.71;87.72;99481.23;1656059;86;20884;-75
2022/01/06 02:15:42;;;;;;;5.67;2.05;;;;;;;2.71;87.74;99485.48;1656147;86;20952;-75
2022/01/06 02:18:08;;;;;;;4.47;1.95;;;;;;;2.69;87.72;99488.04;1670390;85;20964;-75
2022/01/06 02:20:34;;;;;;;1.77;1.37;;;;;;;2.66;87.66;99487.62;1656008;85;21360;-75
2022/01/06 02:23:00;;;;;;;5.30;1.67;;;;;;;2.63;87.73;99489.33;1658780;85;21392;-75
2022/01/06 02:25:32;;;;;;;5.33;1.90;;;;;;;2.61;87.69;99493.16;1683148;84;22083;-75
2022/01/06 02:28:05;;;;;;;4.53;2.12;;;;;;;2.61;87.69;99493.16;1671027;85;21493;-75
2022/01/06 02:30:28;;;;;;;2.98;1.60;;;;;;;2.57;87.66;99508.08;1659590;85;20928;-75
2022/01/06 02:32:55;;;;;;;;;;;;;;;2.54;87.65;99513.62;1658404;85;20917;-75
2022/01/06 02:35:23;;;;;;;;;;;;;;;2.48;87.55;99522.13;1672000;85;20110;-75
2022/01/06 02:37:49;;;;;;;5.40;1.32;;;;;;;2.44;87.55;99516.59;1660880;84;20137;-75
2022/01/06 02:40:19;;;;;;;2.92;1.07;;;;;;;2.37;87.56;99522.56;1675390;84;21611;-75
2022/01/06 02:42:51;;;;;;;5.85;1.75;;;;;;;2.35;87.57;99527.23;1687858;84;21050;-75
2022/01/06 02:45:19;;;;;;;3.05;1.00;;;;;;;2.31;87.58;99522.13;1669274;84;21115;-75
2022/01/06 02:47:47;;;;;;;4.35;1.52;;;;;;;2.29;87.58;99530.21;1661067;84;21287;-75
2022/01/06 02:50:14;;;;;;;2.77;1.10;;;;;;;2.28;87.58;99532.76;1663682;84;20912;-75
2022/01/06 02:52:41;;;;;;;2.92;1.37;;;;;;;2.28;87.61;99532.76;1663042;84;20959;-75
2022/01/06 02:55:10;;;;;;;2.10;1.02;;;;;;;2.26;87.58;99537.02;1661279;86;20963;-75
2022/01/06 02:57:40;;;;;;;3.52;1.40;;;;;;;2.23;87.58;99536.58;1688400;84;21051;-75
2022/01/06 03:00:08;;;;;;;2.40;1.00;;;;;;;2.23;87.62;99543.38;1675481;84;21107;-75
2022/01/06 03:02:34;;;;;;;4.10;1.40;;;;;;;2.23;87.62;99548.06;1668063;84;21006;-75
2022/01/06 03:05:00;;;;;;;;;;;;;;;2.21;87.56;99544.66;1662015;86;21094;-75
2022/01/06 03:07:27;;;;;;;3.67;1.62;;;;;;;2.21;87.60;99552.31;1669957;84;20222;-75
2022/01/06 03:09:56;;;;;;;3.10;1.00;;;;;;;2.20;87.59;99556.13;1687602;84;21048;-75
2022/01/06 03:12:33;;;;;;;4.92;1.22;;;;;;;2.17;87.57;99560.80;1687550;84;21055;-75
2022/01/06 03:14:53;;;;;;;4.17;1.17;;;;;;;2.13;87.45;99568.03;1664565;83;21383;-75
2022/01/06 03:17:20;;;;;;;3.10;1.17;;;;;;;2.04;87.39;99577.39;1659914;85;21087;-75
2022/01/06 03:19:46;;;;;;;3.55;0.78;;;;;;;1.99;87.39;99583.33;1660815;84;21058;-75
2022/01/06 03:22:13;;;;;;;2.92;1.02;;;;;;;1.94;87.40;99585.02;1672391;84;21563;-75
2022/01/06 03:24:41;;;;;;;5.20;1.50;;;;;;;1.91;87.43;99582.46;1660065;86;21063;-75
2022/01/06 03:27:07;;;;;;;3.02;1.17;;;;;;;1.89;87.41;99584.58;1677630;84;20949;-75
2022/01/06 03:29:33;;;;;;;5.00;1.52;;;;;;;1.87;87.42;99597.75;1661365;84;20991;-75
2022/01/06 03:31:59;;;;;;;5.70;1.57;;;;;;;1.85;87.43;99596.47;1668339;84;21149;-75
2022/01/06 03:34:30;;;;;;;5.58;1.10;;;;;;;1.82;87.40;99599.00;1688181;84;21035;-75
2022/01/06 03:36:55;;;;;;;5.47;1.50;;;;;;;1.81;87.37;99599.00;1684138;83;20956;-75
2022/01/06 03:39:21;;;;;;;3.83;1.20;;;;;;;1.79;87.39;99603.24;1681115;85;20897;-75
2022/01/06 03:41:47;;;;;;;4.87;1.13;;;;;;;1.76;87.39;99605.78;1662482;85;20889;-75
2022/01/06 03:44:13;;;;;;;3.77;1.35;;;;;;;1.76;87.43;99607.91;1656507;85;20964;-75
2022/01/06 03:46:39;;;;;;;2.30;0.90;;;;;;;1.73;87.08;99606.63;1660591;85;21046;-75
2022/01/06 03:49:05;;;;;;;1.77;0.78;;;;;;;1.73;87.08;99606.63;1664055;85;20952;-75
2022/01/06 03:51:31;;;;;;;5.15;1.32;;;;;;;1.70;87.36;99609.58;1656269;86;20889;-75
2022/01/06 03:53:57;;;;;;;3.53;1.20;;;;;;;1.69;87.32;99618.92;1656529;86;20955;-75
2022/01/06 03:56:23;;;;;;;5.37;1.52;;;;;;;1.67;87.33;99621.89;1667268;84;20963;-75
2022/01/06 03:58:50;;;;;;;2.80;1.30;;;;;;;1.64;87.32;99628.24;1656675;85;20916;-75
2022/01/06 04:01:16;;;;;;;;;;;;;;;1.62;87.30;99633.76;1658691;86;20928;-75
2022/01/06 04:03:44;;;;;;;;;;;;;;;1.59;87.29;99633.73;1673695;85;20102;-75
2022/01/06 04:06:10;;;;;;;8.48;1.57;;;;;;;1.57;87.25;99632.88;1656058;85;20138;-75
2022/01/06 04:08:37;;;;;;;7.20;1.32;;;;;;;1.53;87.25;99628.23;1656564;86;20924;-75
2022/01/06 04:11:03;;;;;;;4.53;1.77;;;;;;;1.51;87.29;99632.89;1662815;85;20956;-75
2022/01/06 04:13:30;;;;;;;6.20;2.17;;;;;;;1.49;87.26;99640.94;1661834;85;25011;-75
2022/01/06 04:15:57;;;;;;;8.60;1.75;;;;;;;1.48;87.30;99647.73;1662979;83;20956;-75
2022/01/06 04:18:23;;;;;;;6.17;2.37;;;;;;;1.48;87.29;99640.52;1656213;85;20952;-75
2022/01/06 04:20:49;;;;;;;9.58;2.83;;;;;;;1.47;87.29;99640.08;1656261;85;20952;-75
2022/01/06 04:23:15;;;;;;;8.30;2.10;;;;;;;1.47;87.31;99647.30;1668812;85;20884;-75
2022/01/06 04:25:41;;;;;;;5.90;1.97;;;;;;;1.46;87.23;99646.02;1660370;84;20884;-76
2022/01/06 04:28:07;;;;;;;3.67;1.60;;;;;;;1.44;87.26;99641.34;1661150;85;21593;-76
2022/01/06 04:30:33;;;;;;;4.70;1.70;;;;;;;1.44;87.25;99648.98;1655945;85;20935;-76
2022/01/06 04:32:59;;;;;;;5.70;2.37;;;;;;;1.44;87.25;99663.84;1668195;85;20833;-76
2022/01/06 04:35:25;;;;;;;5.65;2.10;;;;;;;1.43;87.26;99663.41;1656497;85;20918;-75
2022/01/06 04:37:51;;;;;;;4.72;1.77;;;;;;;1.43;87.25;99667.23;1662910;84;20920;-75
2022/01/06 04:40:17;;;;;;;6.23;2.00;;;;;;;1.43;87.24;99676.57;1674156;84;20994;-75
2022/01/06 04:42:43;;;;;;;8.50;1.83;;;;;;;1.42;87.23;99674.87;1662011;86;21591;-75
2022/01/06 04:45:09;;;;;;;3.65;1.67;;;;;;;1.45;87.30;99678.70;1667506;84;21012;-75
2022/01/06 04:47:35;;;;;;;6.30;1.50;;;;;;;1.44;87.28;99677.85;1664165;84;21378;-75
2022/01/06 04:50:02;;;;;;;4.60;1.60;;;;;;;1.46;87.05;99681.69;1661690;86;20955;-75
2022/01/06 04:52:28;;;;;;;5.55;1.80;;;;;;;1.46;87.05;99681.69;1663341;84;20912;-75
2022/01/06 04:54:53;;;;;;;3.37;1.62;;;;;;;1.46;87.25;99676.59;1661703;84;20956;-75
2022/01/06 04:57:19;;;;;;;4.70;1.80;;;;;;;1.46;87.24;99685.50;1688129;84;21534;-75
2022/01/06 04:59:46;;;;;;;6.92;2.20;;;;;;;1.47;87.21;99694.84;1661795;84;20928;-75
2022/01/06 05:02:12;;;;;;;6.12;1.77;;;;;;;1.46;87.23;99691.88;1673336;84;20916;-75
2022/01/06 05:04:38;;;;;;;4.65;2.62;;;;;;;1.45;87.23;99693.56;1666536;84;21241;-75
2022/01/06 05:07:04;;;;;;;5.78;1.40;;;;;;;1.45;87.20;99698.66;1689709;84;20936;-75
2022/01/06 05:09:30;;;;;;;2.52;1.32;;;;;;;1.44;87.19;99694.41;1689567;84;20952;-75
2022/01/06 05:11:56;;;;;;;6.15;1.87;;;;;;;1.44;87.17;99701.20;1689650;84;20936;-75
2022/01/06 05:14:22;;;;;;;7.00;1.63;;;;;;;1.41;87.19;99705.85;1669999;84;21531;-75
2022/01/06 05:16:48;;;;;;;2.62;1.02;;;;;;;1.41;87.16;99702.45;1661671;84;20958;-75
2022/01/06 05:19:14;;;;;;;1.82;1.12;;;;;;;1.40;87.17;99701.59;1668104;84;20904;-75
2022/01/06 05:21:40;;;;;;;2.50;1.10;;;;;;;1.39;87.16;99709.23;1661666;85;20928;-75
2022/01/06 05:24:12;;;;;;;3.62;1.20;;;;;;;1.38;87.15;99716.44;1661682;86;20948;-75
2022/01/06 05:26:34;;;;;;;2.42;1.20;;;;;;;1.37;87.17;99713.04;1673473;84;20927;-75
2022/01/06 05:29:00;;;;;;;5.20;1.35;;;;;;;1.37;87.19;99730.87;1689489;84;20917;-75
2022/01/06 05:31:26;;;;;;;3.50;1.30;;;;;;;1.38;87.20;99722.80;1689628;84;20893;-75
2022/01/06 05:33:52;;;;;;;5.83;1.20;;;;;;;1.38;87.19;99724.94;1689213;84;20885;-75
2022/01/06 05:36:18;;;;;;;5.07;1.43;;;;;;;1.37;87.20;99728.74;1677356;84;21012;-75
2022/01/06 05:38:43;;;;;;;2.20;0.67;;;;;;;1.35;87.16;99739.34;1689749;84;20885;-75
2022/01/06 05:41:09;;;;;;;7.00;1.67;;;;;;;1.33;87.18;99737.63;1689536;84;20892;-75
2022/01/06 05:43:35;;;;;;;3.87;1.07;;;;;;;1.32;87.18;99736.35;1666329;84;20912;-75
2022/01/06 05:46:01;;;;;;;4.10;1.35;;;;;;;1.30;87.18;99746.53;1689096;84;20944;-75
2022/01/06 05:48:27;;;;;;;4.22;1.10;;;;;;;1.29;87.21;99744.82;1665237;84;21446;-75
2022/01/06 05:50:53;;;;;;;3.92;1.17;;;;;;;1.28;87.21;99753.72;1670071;84;20920;-75
2022/01/06 05:53:21;;;;;;;4.17;1.20;;;;;;;1.26;87.21;99756.25;1667816;84;21420;-75
2022/01/06 05:55:47;;;;;;;2.90;1.10;;;;;;;1.24;87.21;99755.81;1674477;84;21261;-75
2022/01/06 05:58:14;;;;;;;4.75;1.17;;;;;;;1.25;87.25;99765.16;1676277;84;20935;-75
2022/01/06 06:00:41;;;;;;;5.65;1.02;;;;;;;1.24;87.27;99770.67;1661649;86;20952;-75
2022/01/06 06:03:06;;;;;;;2.35;1.00;;;;;;;1.22;87.25;99772.34;1662998;84;27046;-75
2022/01/06 06:05:33;;;;;;;2.02;0.95;;;;;;;1.23;87.29;99778.30;1661595;84;20877;-75
2022/01/06 06:07:59;;;;;;;2.87;0.82;;;;;;;1.20;87.23;99784.22;1680250;84;20949;-75
2022/01/06 06:10:25;;;;;;;5.05;0.90;;;;;;;1.17;87.25;99785.47;1678553;84;20960;-76
2022/01/06 06:12:52;;;;;;;2.72;0.85;;;;;;;1.18;87.33;99790.14;1661643;84;20889;-75
2022/01/06 06:15:20;;;;;;;5.42;1.80;;;;;;;1.18;87.33;99796.08;1661371;84;20975;-75
2022/01/06 06:17:46;;;;;;;2.42;0.78;;;;;;;1.17;87.32;99803.70;1674963;84;20953;-75
2022/01/06 06:20:12;;;;;;;2.55;1.67;;;;;;;1.17;87.30;99809.65;1689704;84;20918;-75
2022/01/06 06:22:39;;;;;;;2.25;1.42;;;;;;;1.17;87.35;99823.66;1689830;84;26401;-75
2022/01/06 06:25:06;;;;;;;2.50;1.20;;;;;;;1.17;87.35;99826.63;1657635;85;20972;-75
2022/01/06 06:27:32;;;;;;;1.37;0.95;;;;;;;1.16;87.35;99830.86;1689339;84;20945;-75
2022/01/06 06:29:58;;;;;;;1.72;0.88;;;;;;;1.16;87.31;99834.67;1671166;85;20978;-75
2022/01/06 06:32:26;;;;;;;1.55;0.90;;;;;;;1.16;87.33;99842.31;1687480;84;20901;-75
2022/01/06 06:34:52;;;;;;;2.42;1.40;;;;;;;1.15;87.29;99844.43;1673258;84;21147;-75
2022/01/06 06:37:19;;;;;;;1.12;1.02;;;;;;;1.11;87.21;99855.42;1675218;84;21594;-75
2022/01/06 06:39:45;;;;;;;2.20;1.20;;;;;;;1.09;87.22;99863.88;1665454;85;27532;-75
2022/01/06 06:42:11;;;;;;;3.00;1.22;;;;;;;1.07;87.20;99875.73;1682535;85;20926;-75
2022/01/06 06:44:37;;;;;;;1.65;0.60;;;;;;;1.01;87.06;99877.84;1676555;85;21476;-75
2022/01/06 06:47:03;;;;;;;1.77;0.72;;;;;;;0.93;86.93;99880.30;1676840;85;21040;-75
2022/01/06 06:49:29;;;;;;;1.67;0.70;;;;;;;0.87;86.82;99892.09;1682549;85;21084;-75
2022/01/06 06:51:56;;;;;;;2.20;0.93;;;;;;;0.79;86.84;99892.42;1682364;85;22440;-75
2022/01/06 06:54:22;;;;;;;0.95;0.50;;;;;;;0.63;86.64;99905.38;1669128;85;25661;-75
2022/01/06 06:56:48;;;;;;;0.50;0.30;;;;;;;0.63;86.64;99905.38;1682129;84;20985;-75
2022/01/06 06:59:14;;;;;;;0.35;0.35;;;;;;;0.59;86.71;99907.02;1689587;84;21028;-75
2022/01/06 07:01:39;;;;;;;0.50;0.40;;;;;;;0.56;86.65;99919.70;1686400;83;21758;-75
2022/01/06 07:04:05;;;;;;;0.62;0.40;;;;;;;0.55;86.61;99920.95;1652896;85;21116;-75
2022/01/06 07:06:31;;;;;;;0.98;0.47;;;;;;;0.53;86.55;99936.61;1685958;83;21764;-75
2022/01/06 07:08:57;;;;;;;1.42;0.75;;;;;;;0.51;86.55;99938.31;1682412;85;20929;-75
2022/01/06 07:11:23;;;;;;;0.47;0.30;;;;;;;0.51;86.44;99940.86;1681669;85;21639;-75
2022/01/06 07:13:49;;;;;;;2.02;0.60;;;;;;;0.51;86.48;99954.43;1666105;85;21437;-75
2022/01/06 07:16:15;;;;;;;1.90;0.60;;;;;;;0.51;86.48;99954.43;1654696;86;21604;-76
2022/01/06 07:18:42;;;;;;;1.12;0.70;;;;;;;0.48;86.33;99967.52;1656127;86;20894;-75
2022/01/06 07:21:08;;;;;;;0.62;0.30;;;;;;;0.43;86.40;99973.81;1657107;85;21607;-75
2022/01/06 07:23:34;;;;;;;1.17;0.37;;;;;;;0.39;86.36;99984.77;1668683;85;21799;-75
2022/01/06 07:26:00;;;;;;;0.50;0.33;;;;;;;0.38;86.15;100002.55;1668844;83;21408;-75
2022/01/06 07:28:26;;;;;;;0.80;0.45;;;;;;;0.35;86.24;100002.50;1688427;84;20922;-77
2022/01/06 07:30:52;;;;;;;0.50;0.42;;;;;;;0.29;86.01;100015.98;1678837;85;21516;-76
2022/01/06 07:33:18;;;;;;;0.33;0.33;;;;;;;0.26;86.05;100021.87;1680111;85;20974;-77
2022/01/06 07:35:44;;;;;;;2.27;0.50;;;;;;;0.23;86.07;100033.67;1684757;83;21485;-76
2022/01/06 07:38:11;;;;;;;2.42;0.30;;;;;;;0.19;85.99;100034.04;1670157;85;21437;-77
2022/01/06 07:40:37;;;;;;;1.35;0.53;;;;;;;0.17;85.91;100033.57;1683118;85;21063;-77
2022/01/06 07:43:03;;;;;;;0.53;0.37;;;;;;;0.14;85.62;100043.69;1683672;85;21386;-77
2022/01/06 07:45:29;;;;;;;0.90;0.33;;;;;;;0.10;85.51;100049.55;1683139;85;21402;-77
2022/01/06 07:47:57;;;;;;;3.33;0.93;;;;;;;0.08;85.65;100046.12;1666598;85;20862;-77
2022/01/06 07:50:28;;;;;;;1.60;0.70;;;;;;;0.04;85.45;100062.16;1659113;85;21402;-77
2022/01/06 07:52:54;;;;;;;0.68;0.42;;;;;;;0.00;85.60;100065.09;1660803;85;21521;-77
2022/01/06 07:55:20;;;;;;;1.62;0.60;;;;;;;-0.04;85.59;100071.80;1658029;83;20965;-77
2022/01/06 07:57:47;;;;;;;3.22;0.78;;;;;;;-0.06;85.50;100073.88;1672177;84;21773;-76
2022/01/06 08:00:14;;;;;;;1.70;0.75;;;;;;;-0.08;85.36;100078.07;1682094;85;21530;-77
2022/01/06 08:02:40;;;;;;;1.20;0.53;;;;;;;-0.10;85.37;100074.64;1676382;85;20985;-77
2022/01/06 08:05:10;;;;;;;1.77;0.80;;;;;;;-0.14;85.29;100076.27;1667178;85;20922;-77
2022/01/06 08:07:35;;;;;;;1.62;0.72;;;;;;;-0.13;85.29;100082.21;1680980;85;20879;-77
2022/01/06 08:10:02;;;;;;;2.10;0.90;;;;;;;-0.15;85.27;100086.41;1683426;85;20941;-77
2022/01/06 08:12:28;;;;;;;2.05;0.82;;;;;;;-0.15;85.28;100094.03;1683774;85;21383;-77
2022/01/06 08:14:54;;;;;;;1.37;0.80;;;;;;;-0.15;85.33;100102.92;1683305;85;21516;-77
2022/01/06 08:17:20;;;;;;;0.90;0.50;;;;;;;-0.15;85.27;100111.41;1678050;84;21005;-77
2022/01/06 08:19:47;;;;;;;0.40;0.30;;;;;;;-0.11;85.29;100113.17;1678374;84;22244;-77
2022/01/06 08:22:13;;;;;;;1.27;0.50;;;;;;;-0.05;85.25;100116.25;1667502;85;20998;-78
2022/01/06 08:24:40;;;;;;;1.92;0.70;;;;;;;0.00;85.48;100120.55;1655027;85;20929;-77
2022/01/06 08:27:08;;;;;;;0.98;0.50;;;;;;;0.04;85.37;100126.55;1679123;84;26869;-77
2022/01/06 08:29:38;;;;;;;1.25;0.60;;;;;;;0.08;85.28;100133.81;1666048;85;20913;-77
2022/01/06 08:32:06;;;;;;;0.78;0.47;;;;;;;0.11;85.33;100135.14;1667791;85;21572;-78
2022/01/06 08:34:33;;;;;;;2.27;0.40;;;;;;;0.13;85.34;100143.23;1669234;85;20922;-77
2022/01/06 08:36:59;;;;;;;2.58;0.95;;;;;;;0.16;85.42;100143.71;1671887;84;21584;-77
2022/01/06 08:39:25;;;;;;;0.85;0.62;;;;;;;0.19;85.31;100152.66;1678858;85;21427;-77
2022/01/06 08:41:53;;;;;;;3.25;0.95;;;;;;;0.20;85.22;100152.70;1674803;85;20886;-77
2022/01/06 08:44:21;;;;;;;0.90;0.40;;;;;;;0.23;85.21;100155.70;1674613;85;20951;-77
2022/01/06 08:46:48;;;;;;;0.40;0.30;;;;;;;0.24;85.26;100153.20;1666926;85;20902;-77
2022/01/06 08:49:15;;;;;;;1.17;0.55;;;;;;;0.26;85.30;100159.16;1669660;85;20961;-77
2022/01/06 08:51:42;;;;;;;0.45;0.40;;;;;;;0.26;85.15;100157.03;1681178;85;21371;-77
2022/01/06 08:54:08;;;;;;;1.12;0.50;;;;;;;0.26;85.18;100162.13;1660998;85;20989;-77
2022/01/06 08:56:38;;;;;;;1.05;0.50;;;;;;;0.25;85.19;100166.77;1675288;83;25026;-77
2022/01/06 08:59:04;;;;;;;0.50;0.28;;;;;;;0.22;85.14;100172.65;1689403;84;21449;-77
2022/01/06 09:01:32;;;;;;;2.33;0.75;;;;;;;0.23;85.10;100176.05;1671498;84;21389;-77
2022/01/06 09:03:59;;;;;;;1.32;1.10;;;;;;;0.18;85.08;100182.31;1682641;85;20914;-77
2022/01/06 09:06:28;;;;;;;1.75;0.30;;;;;;;0.19;85.04;100186.58;1682436;85;20910;-77
2022/01/06 09:08:54;;;;;;;0.47;0.30;;;;;;;0.20;84.98;100185.75;1682301;85;21399;-77
2022/01/06 09:11:20;;;;;;;1.50;0.50;;;;;;;0.23;84.98;100181.98;1676171;85;20917;-77
2022/01/06 09:13:46;;;;;;;1.05;0.30;;;;;;;0.25;84.91;100182.87;1631867;86;20966;-77
2022/01/06 09:16:13;;;;;;;1.10;0.40;;;;;;;0.28;84.96;100196.06;1654763;86;20977;-77
2022/01/06 09:18:40;;;;;;;;;;;;;;;0.31;85.01;100190.62;1657402;85;21378;-77
2022/01/06 09:21:07;;;;;;;0.98;0.40;;;;;;;0.33;84.75;100191.92;1654622;85;20102;-77
2022/01/06 09:23:34;;;;;;;1.15;0.60;;;;;;;0.33;84.82;100202.09;1654888;86;20977;-77
2022/01/06 09:26:00;;;;;;;0.47;0.40;;;;;;;0.31;84.79;100205.02;1675866;83;20966;-77
2022/01/06 09:28:27;;;;;;;2.90;0.80;;;;;;;0.30;84.80;100211.79;1682244;85;21104;-77
2022/01/06 09:30:55;;;;;;;;;;;;;;;0.30;84.80;100211.79;1660998;85;21403;-77
2022/01/06 09:33:22;;;;;;;1.10;0.40;;;;;;;0.31;84.76;100210.96;1658327;85;20465;-77
2022/01/06 09:35:51;;;;;;;1.60;0.90;;;;;;;0.34;84.74;100215.25;1675711;85;20953;-77
2022/01/06 09:38:18;;;;;;;0.47;0.33;;;;;;;0.38;84.79;100224.65;1679654;83;20905;-77
2022/01/06 09:40:45;;;;;;;3.40;0.50;;;;;;;0.44;84.76;100240.44;1680495;84;21469;-77
2022/01/06 09:43:12;;;;;;;2.60;0.50;;;;;;;0.48;84.67;100235.44;1674846;84;20921;-77
2022/01/06 09:45:40;;;;;;;1.40;0.60;;;;;;;0.51;84.71;100242.27;1675783;84;21280;-77
2022/01/06 09:48:08;;;;;;;2.40;0.60;;;;;;;0.53;84.71;100244.39;1687330;84;20902;-77
2022/01/06 09:50:36;;;;;;;0.82;0.72;;;;;;;0.56;84.65;100249.53;1680987;84;20925;-77
2022/01/06 09:53:03;;;;;;;1.70;0.65;;;;;;;0.57;84.64;100255.06;1661731;84;20961;-77
2022/01/06 09:55:30;;;;;;;0.82;0.47;;;;;;;0.59;84.65;100259.77;1671315;84;20934;-77
2022/01/06 09:58:00;;;;;;;0.65;0.42;;;;;;;0.57;84.40;100266.52;1687616;84;20918;-77
2022/01/06 10:00:28;;;;;;;1.62;0.75;;;;;;;0.55;84.34;100261.81;1664540;85;20937;-77
2022/01/06 10:02:59;;;;;;;0.93;0.57;;;;;;;0.58;84.53;100268.23;1653147;85;20988;-77
2022/01/06 10:05:26;;;;;;;0.68;0.62;;;;;;;0.57;84.43;100268.64;1657538;84;20917;-77
2022/01/06 10:07:53;;;;;;;2.35;0.47;;;;;;;0.55;84.26;100271.98;1687032;83;21343;-77
2022/01/06 10:10:25;;;;;;;1.32;0.37;;;;;;;0.51;84.21;100262.20;1692766;84;20916;-77
2022/01/06 10:13:00;;;;;;;1.32;0.57;;;;;;;0.49;84.31;100274.03;1689461;84;21335;-77
2022/01/06 10:15:28;;;;;;;0.60;0.40;;;;;;;0.48;84.22;100279.95;1685116;83;21323;-77
2022/01/06 10:17:55;;;;;;;6.67;0.90;;;;;;;0.50;84.31;100279.98;1692498;84;21113;-77
2022/01/06 10:20:26;;;;;;;;;;;;;;;0.49;84.27;100290.56;1668246;85;20883;-77
2022/01/06 10:22:56;;;;;;;1.07;0.50;;;;;;;0.48;84.03;100291.39;1669066;85;20452;-77
2022/01/06 10:25:25;;;;;;;1.42;0.78;;;;;;;0.44;83.93;100303.61;1687856;83;20937;-77
2022/01/06 10:27:56;;;;;;;2.35;0.80;;;;;;;0.42;84.10;100312.89;1686630;84;20929;-77
2022/01/06 10:30:20;;;;;;;3.67;1.00;;;;;;;0.43;84.19;100301.03;1682429;84;20910;-76
2022/01/06 10:32:46;;;;;;;1.15;0.53;;;;;;;0.44;83.96;100293.44;1687634;84;20998;-76
2022/01/06 10:35:20;;;;;;;3.50;1.15;;;;;;;0.39;84.00;100300.12;1646300;85;20922;-77
2022/01/06 10:37:48;;;;;;;2.92;0.70;;;;;;;0.35;84.02;100307.23;1669657;84;21470;-76
2022/01/06 10:40:19;;;;;;;1.98;1.20;;;;;;;0.32;84.06;100308.45;1672508;84;20913;-77
2022/01/06 10:42:49;;;;;;;1.25;0.62;;;;;;;0.32;84.08;100323.70;1680510;84;20917;-77
2022/01/06 10:45:23;;;;;;;2.42;1.70;;;;;;;0.36;84.03;100324.21;1646067;85;20970;-77
2022/01/06 10:47:51;;;;;;;3.83;1.67;;;;;;;0.39;84.10;100333.17;1698581;83;123082;-77
2022/01/06 10:50:21;;;;;;;4.40;1.63;;;;;;;0.45;84.13;100320.58;1704945;82;20953;-77
2022/01/06 10:53:00;;;;;;;4.62;1.52;;;;;;;0.46;83.96;100332.47;1708184;83;20977;-77
2022/01/06 10:55:39;;;;;;;1.75;1.17;;;;;;;0.50;84.06;100333.39;1702344;82;20969;-77
2022/01/06 10:58:13;;;;;;;2.05;0.90;;;;;;;0.55;84.12;100339.40;1698771;83;20981;-77
2022/01/06 11:00:45;;;;;;;2.90;1.10;;;;;;;0.62;84.09;100342.52;1707931;83;20910;-77
2022/01/06 11:03:19;;;;;;;3.08;1.15;;;;;;;0.70;84.05;100343.52;1711543;83;20937;-77
2022/01/06 11:05:51;;;;;;;3.25;1.85;;;;;;;0.74;84.04;100338.94;1692866;83;20957;-77
2022/01/06 11:08:25;;;;;;;2.98;1.20;;;;;;;0.81;84.02;100353.49;1707937;83;20921;-77
2022/01/06 11:13:41;;;;;;;3.70;1.40;;;;;;;0.83;83.94;100359.88;1707309;82;20950;-77
2022/01/06 11:16:12;;;;;;;1.82;0.90;;;;;;;0.84;83.72;100365.00;1702005;83;20973;-77
2022/01/06 11:18:43;;;;;;;2.08;0.95;;;;;;;0.83;83.88;100372.20;1708935;81;20914;-77
2022/01/06 11:21:17;;;;;;;3.60;1.40;;;;;;;0.83;83.64;100374.73;1687790;83;21472;-77
2022/01/06 11:23:43;;;;;;;1.15;0.70;;;;;;;0.83;83.76;100381.52;1705443;83;20937;-77
2022/01/06 11:26:22;;;;;;;2.83;1.12;;;;;;;0.82;83.76;100381.94;1702504;82;20894;-77
2022/01/06 11:28:58;;;;;;;2.60;1.20;;;;;;;0.82;83.70;100379.80;1711983;83;20945;-77
2022/01/06 11:31:30;;;;;;;;;;;;;;;0.84;83.71;100389.19;1712764;83;20968;-77
2022/01/06 11:33:57;;;;;;;1.60;0.70;;;;;;;0.86;83.67;100385.39;1679290;83;20107;-77
2022/01/06 11:36:32;;;;;;;3.75;1.47;;;;;;;0.86;83.49;100384.12;1691718;83;20902;-77
2022/01/06 11:39:05;;;;;;;0.97;0.80;;;;;;;0.81;83.44;100392.94;1707520;81;20968;-77
2022/01/06 11:41:39;;;;;;;2.00;0.88;;;;;;;0.80;83.55;100397.59;1664621;84;21012;-77
2022/01/06 11:44:22;;;;;;;2.22;0.95;;;;;;;0.79;83.46;100389.92;1679893;84;21048;-77
2022/01/06 11:46:53;;;;;;;2.37;0.90;;;;;;;0.76;83.41;100396.22;1667323;84;21092;-77
2022/01/06 11:49:38;;;;;;;1.32;0.80;;;;;;;0.75;83.32;100397.05;1675462;84;21062;-77
2022/01/06 11:52:13;;;;;;;1.77;1.00;;;;;;;0.73;83.18;100402.11;1669805;84;21082;-76
2022/01/06 11:54:53;;;;;;;2.10;1.07;;;;;;;0.72;83.33;100404.20;1687241;84;21455;-75